Salto Do Ceu, Brazil
Current Conditions -  °F | °C
As of 9:00 AM on Sunday 23 Nov 2014 (Local Time) from SBCY Reporting Station
Drizzle Drizzle  
Wind Chill: 75°   Ceiling: 700
Heat Index: 75°   Visibility: 6mi
Dew Point: 72°   Wind: 3mph
Humidity: 89%   Direction: 180°S
Pressure: 29.94"   Gusts: NA
Location:  15.13°S, 58.13°W
Report Text: SBCY 231200Z 18003KT 9999 DZ SCT004 BKN007 OVC012 24/22 Q1014
Loading
Personal Weather Stations






























Interactive Weather Map New forecast layout! Learn more

10-Day Weather Forecast

Advertisements
Track Severe Weather on mobile